Weather History for Oskaloosa, IA

Change the Weather History Date:

Thursday, November 15, 2012

  Actual Average (KOTM) Record (KOTM)
Temperature  
Mean Temperature 46 °F 40 °F  
Max Temperature 59 °F 49 °F 76 °F (1950)
Min Temperature 33 °F 30 °F 4 °F (1959)
Degree Days  
Heating Degree Days 19 25  
Month to date heating degree days 327  
Since 1 July heating degree days 851  
Cooling Degree Days 0 0  
Month to date cooling degree days 0  
Year to date cooling degree days 938  
Moisture  
Dew Point 31 °F    
Average Humidity 64    
Maximum Humidity 85    
Minimum Humidity 35    
Precipitation  
Precipitation 0.00 in 0.08 in 1.91 in (1961)
Month to date precipitation 1.30  
Year to date precipitation 34.62  
Sea Level Pressure  
Sea Level Pressure 30.30 in    
Wind  
Wind Speed 8 mph (SW)    
Max Wind Speed 14 mph    
Max Gust Speed 17 mph    
Visibility 10 miles    
Events      
T = Trace of Precipitation, MM = Missing Value Source: NWS Daily Summary

Daily Weather History Graph

Daily Weather History Graph

Search for Another Location

Airport:

Trip Planner

Search our weather history database for the weather conditions in past years. The results will help you decide how hot, cold, wet, or windy it might be!

Date:

Astronomy

Nov. 15, 2012 Rise Set
Actual Time 6:58 AM CST 4:50 PM CST
Civil Twilight 6:28 AM CST 5:19 PM CST
Nautical Twilight 5:55 AM CST 5:53 PM CST
Astronomical Twilight 5:22 AM CST 6:25 PM CST
Moon 8:55 AM CST (11/15) 6:41 PM CST (11/15)
Length of Visible Light 10h 51m
Length of Day
9h 51m
Waxing Crescent, 5% of the Moon is Illuminated
Nov 15
Waxing Crescent
Nov 20
First Quarter
Nov 28
Full
Dec 6
Last Quarter
Dec 13
New

Hourly Weather History & Observations

Time (CST) Temp. Windchill Dew Point Humidity Pressure Visibility Wind Dir Wind Speed Gust Speed Precip Events Conditions
12:15 AM 37.8 °F 31.8 °F 31.1 °F 77% 30.29 in 10.0 mi South 8.1 mph - N/A   Clear
12:35 AM 36.9 °F 30.7 °F 30.9 °F 79% 30.29 in 10.0 mi South 8.1 mph - N/A   Clear
12:55 AM 37.4 °F 31.4 °F 31.1 °F 78% 30.29 in 10.0 mi South 8.1 mph - N/A   Clear
1:15 AM 36.7 °F 30.5 °F 30.9 °F 80% 30.28 in 10.0 mi South 8.1 mph - N/A   Clear
1:35 AM 37.4 °F 31.4 °F 30.7 °F 77% 30.28 in 10.0 mi South 8.1 mph - N/A   Clear
1:55 AM 37.9 °F 32.1 °F 30.6 °F 75% 30.28 in 10.0 mi South 8.1 mph - N/A   Clear
2:15 AM 37.6 °F 31.0 °F 30.2 °F 75% 30.28 in 10.0 mi South 9.2 mph - N/A   Clear
2:35 AM 37.4 °F 30.8 °F 30.0 °F 75% 30.28 in 10.0 mi South 9.2 mph - N/A   Clear
2:55 AM 37.2 °F 30.6 °F 29.8 °F 75% 30.27 in 10.0 mi South 9.2 mph - N/A   Clear
3:15 AM 37.4 °F 30.8 °F 30.0 °F 75% 30.27 in 10.0 mi South 9.2 mph - N/A   Clear
3:35 AM 37.4 °F 31.4 °F 30.2 °F 75% 30.27 in 10.0 mi South 8.1 mph - N/A   Mostly Cloudy
3:55 AM 37.4 °F 31.4 °F 30.2 °F 75% 30.27 in 10.0 mi South 8.1 mph - N/A   Overcast
4:15 AM 37.2 °F 31.9 °F 30.2 °F 76% 30.28 in 10.0 mi South 6.9 mph - N/A   Overcast
4:35 AM 36.9 °F 31.4 °F 30.2 °F 77% 30.28 in 10.0 mi South 6.9 mph - N/A   Mostly Cloudy
4:55 AM 35.8 °F 30.1 °F 29.8 °F 79% 30.28 in 10.0 mi South 6.9 mph - N/A   Scattered Clouds
5:15 AM 35.1 °F 30.1 °F 29.5 °F 80% 30.28 in 10.0 mi SSE 5.8 mph - N/A   Clear
5:35 AM 34.7 °F 28.8 °F 29.3 °F 81% 30.28 in 10.0 mi SSE 6.9 mph - N/A   Clear
5:55 AM 35.1 °F 30.1 °F 28.4 °F 77% 30.28 in 10.0 mi SSE 5.8 mph - N/A   Clear
6:15 AM 33.8 °F 27.0 °F 28.2 °F 80% 30.28 in 10.0 mi SSE 8.1 mph - N/A   Clear
6:35 AM 33.6 °F 26.2 °F 28.2 °F 81% 30.28 in 10.0 mi SSE 9.2 mph - N/A   Clear
6:55 AM 33.3 °F 25.7 °F 27.9 °F 81% 30.28 in 10.0 mi SSE 9.2 mph - N/A   Clear
7:15 AM 34.0 °F 26.6 °F 27.9 °F 78% 30.29 in 10.0 mi SSE 9.2 mph - N/A   Clear
7:35 AM 34.3 °F 26.5 °F 28.0 °F 78% 30.30 in 10.0 mi SSE 10.4 mph - N/A   Clear
7:55 AM 34.7 °F 27.5 °F 28.2 °F 77% 30.30 in 10.0 mi SSE 9.2 mph - N/A   Clear
8:15 AM 35.1 °F 29.3 °F 28.6 °F 77% 30.30 in 10.0 mi South 6.9 mph - N/A   Clear
8:35 AM 36.9 °F 31.4 °F 29.7 °F 75% 30.30 in 10.0 mi South 6.9 mph - N/A   Clear
8:55 AM 40.1 °F 34.1 °F 29.7 °F 66% 30.30 in 10.0 mi South 9.2 mph - N/A   Clear
9:15 AM 42.6 °F 37.8 °F 30.0 °F 61% 30.30 in 10.0 mi South 8.1 mph - N/A   Clear
9:35 AM 44.6 °F 39.7 °F 30.0 °F 57% 30.30 in 10.0 mi South 9.2 mph - N/A   Clear
9:55 AM 46.9 °F - 30.4 °F 53% 30.30 in 10.0 mi South 9.2 mph - N/A   Clear
10:15 AM 49.3 °F - 30.2 °F 48% 30.31 in 10.0 mi SSW 9.2 mph - N/A   Clear
10:35 AM 51.3 °F - 30.4 °F 45% 30.30 in 10.0 mi SW 10.4 mph - N/A   Clear
10:55 AM 52.0 °F - 31.1 °F 45% 30.30 in 10.0 mi SSW 12.7 mph - N/A   Clear
11:15 AM 53.4 °F - 31.3 °F 43% 30.30 in 10.0 mi SW 8.1 mph - N/A   Clear
11:35 AM 55.9 °F - 31.1 °F 39% 30.29 in 10.0 mi WSW 13.8 mph 17.3 mph N/A   Clear
11:55 AM 56.3 °F - 31.1 °F 38% 30.29 in 10.0 mi WSW 9.2 mph - N/A   Clear
12:15 PM 57.4 °F - 31.8 °F 38% 30.28 in 10.0 mi SW 10.4 mph 16.1 mph N/A   Scattered Clouds
12:35 PM 57.9 °F - 32.0 °F 37% 30.28 in 10.0 mi SW 10.4 mph - N/A   Scattered Clouds
12:55 PM 58.5 °F - 31.6 °F 36% 30.27 in 10.0 mi WSW 12.7 mph - N/A   Clear
1:15 PM 58.6 °F - 31.8 °F 36% 30.27 in 10.0 mi West 12.7 mph - N/A   Clear
1:35 PM 58.3 °F - 32.0 °F 37% 30.27 in 10.0 mi WSW 9.2 mph - N/A   Clear
1:55 PM 59.2 °F - 31.8 °F 36% 30.27 in 10.0 mi West 6.9 mph - N/A   Clear
2:15 PM 59.9 °F - 31.8 °F 35% 30.26 in 10.0 mi West 5.8 mph 9.2 mph N/A   Scattered Clouds
2:35 PM 58.5 °F - 32.0 °F 37% 30.27 in 10.0 mi WSW 9.2 mph - N/A   Scattered Clouds
2:55 PM 58.6 °F - 33.1 °F 38% 30.27 in 10.0 mi West 8.1 mph - N/A   Clear
3:15 PM 58.5 °F - 32.9 °F 38% 30.27 in 10.0 mi West 6.9 mph - N/A   Clear
3:35 PM 57.7 °F - 33.6 °F 40% 30.27 in 10.0 mi West 6.9 mph - N/A   Clear
3:55 PM 57.4 °F - 34.3 °F 42% 30.27 in 10.0 mi West 5.8 mph - N/A   Clear
4:15 PM 55.4 °F - 35.4 °F 47% 30.28 in 10.0 mi West 5.8 mph - N/A   Clear
4:35 PM 52.9 °F - 35.8 °F 52% 30.29 in 10.0 mi WNW 5.8 mph - N/A   Clear
4:55 PM 50.0 °F - 35.6 °F 58% 30.30 in 10.0 mi WNW 6.9 mph - N/A   Clear
5:15 PM 48.6 °F - 34.7 °F 59% 30.30 in 10.0 mi WNW 6.9 mph - N/A   Clear
5:35 PM 46.4 °F 42.4 °F 33.8 °F 62% 30.30 in 10.0 mi WNW 8.1 mph - N/A   Clear
5:55 PM 45.5 °F 41.3 °F 33.1 °F 62% 30.31 in 10.0 mi WNW 8.1 mph - N/A   Clear
6:15 PM 44.8 °F 41.0 °F 32.9 °F 63% 30.31 in 10.0 mi WNW 6.9 mph - N/A   Clear
6:35 PM 45.1 °F 41.4 °F 33.1 °F 63% 30.32 in 10.0 mi WNW 6.9 mph - N/A   Clear
6:55 PM 45.0 °F 40.6 °F 32.4 °F 61% 30.32 in 10.0 mi WNW 8.1 mph - N/A   Clear
7:15 PM 42.3 °F 38.6 °F 32.2 °F 67% 30.32 in 10.0 mi WNW 5.8 mph - N/A   Clear
7:35 PM 43.5 °F 41.9 °F 32.2 °F 64% 30.33 in 10.0 mi WNW 3.5 mph - N/A   Clear
7:55 PM 40.8 °F 36.9 °F 32.0 °F 71% 30.34 in 10.0 mi WNW 5.8 mph - N/A   Clear
8:15 PM 40.5 °F 34.6 °F 32.2 °F 72% 30.34 in 10.0 mi NNW 9.2 mph - N/A   Clear
8:35 PM 41.0 °F 35.2 °F 32.9 °F 73% 30.35 in 10.0 mi NNW 9.2 mph - N/A   Clear
8:55 PM 42.1 °F 38.4 °F 32.4 °F 68% 30.35 in 10.0 mi North 5.8 mph - N/A   Clear
9:15 PM 41.0 °F 37.1 °F 32.2 °F 71% 30.36 in 10.0 mi NNW 5.8 mph - N/A   Clear
9:35 PM 38.8 °F 33.2 °F 32.0 °F 76% 30.36 in 10.0 mi North 8.1 mph - N/A   Clear
9:55 PM 39.7 °F 34.3 °F 32.2 °F 74% 30.36 in 10.0 mi North 8.1 mph - N/A   Clear
10:15 PM 40.1 °F 33.6 °F 32.9 °F 75% 30.37 in 10.0 mi North 10.4 mph - N/A   Clear
10:35 PM 39.2 °F 32.5 °F 32.5 °F 77% 30.37 in 10.0 mi North 10.4 mph - N/A   Clear
10:55 PM 37.9 °F 32.1 °F 32.0 °F 79% 30.38 in 10.0 mi North 8.1 mph - N/A   Clear
11:15 PM 37.8 °F 31.8 °F 32.4 °F 81% 30.38 in 10.0 mi North 8.1 mph - N/A   Clear
11:35 PM 37.4 °F 32.1 °F 32.0 °F 81% 30.39 in 10.0 mi North 6.9 mph - N/A   Clear
11:55 PM 36.1 °F 30.6 °F 32.0 °F 85% 30.39 in 10.0 mi NNW 6.9 mph - N/A   Clear